PBD9283 USCC-UUWW
Flight info
| Callsign | PBD9283 |
|---|---|
| Flight time | N/A |
| Altitude | 34000 |
| Route | BEDOT2E BEDOT L158 DIMGI DIMGI3B |
| Aircraft | B737/M-V/N |
Departure
| Time | 2026-04-24 15:48 |
|---|---|
| Airport | Kurchatov Chelyabinsk International Airport (USCC) |
Arrival
| Time | N/A |
|---|---|
| Airport | Vnukovo International Airport (UUWW) |
| Time | Latitude | Longitude | Altitude | Speed | Heading |
|---|---|---|---|---|---|
| 2026-04-24 15:23 | 55.29879 | 61.51047 | 745 ft | 0 kts | 243° |
| 2026-04-24 15:35 | 55.29884 | 61.51065 | 745 ft | 2 kts | 242° |
| 2026-04-24 15:36 | 55.29894 | 61.51095 | 745 ft | 2 kts | 235° |
| 2026-04-24 15:36 | 55.29910 | 61.51129 | 745 ft | 2 kts | 225° |
| 2026-04-24 15:36 | 55.29920 | 61.51146 | 745 ft | 2 kts | 218° |
| 2026-04-24 15:37 | 55.29930 | 61.51167 | 744 ft | 2 kts | 256° |
| 2026-04-24 15:37 | 55.29929 | 61.51201 | 744 ft | 2 kts | 296° |
| 2026-04-24 15:37 | 55.29926 | 61.51210 | 744 ft | 0 kts | 297° |
| 2026-04-24 15:37 | 55.29925 | 61.51214 | 744 ft | 0 kts | 296° |
| 2026-04-24 15:38 | 55.29926 | 61.51214 | 744 ft | 0 kts | 296° |
| 2026-04-24 15:38 | 55.29926 | 61.51213 | 744 ft | 0 kts | 296° |
| 2026-04-24 15:39 | 55.29935 | 61.51156 | 744 ft | 10 kts | 284° |
| 2026-04-24 15:39 | 55.29951 | 61.51040 | 746 ft | 9 kts | 284° |
| 2026-04-24 15:40 | 55.29974 | 61.50873 | 747 ft | 16 kts | 283° |
| 2026-04-24 15:40 | 55.30001 | 61.50669 | 747 ft | 19 kts | 284° |
| 2026-04-24 15:40 | 55.30032 | 61.50447 | 751 ft | 17 kts | 284° |
| 2026-04-24 15:40 | 55.30061 | 61.50235 | 753 ft | 17 kts | 284° |
| 2026-04-24 15:41 | 55.30084 | 61.50068 | 756 ft | 9 kts | 289° |
| 2026-04-24 15:41 | 55.30152 | 61.50026 | 757 ft | 21 kts | 11° |
| 2026-04-24 15:41 | 55.30297 | 61.50088 | 757 ft | 16 kts | 14° |
| 2026-04-24 15:41 | 55.30422 | 61.50055 | 757 ft | 14 kts | 288° |
| 2026-04-24 15:42 | 55.30444 | 61.49905 | 759 ft | 25 kts | 283° |
| 2026-04-24 15:42 | 55.30470 | 61.49718 | 761 ft | 4 kts | 284° |
| 2026-04-24 15:42 | 55.30480 | 61.49647 | 761 ft | 6 kts | 284° |
| 2026-04-24 15:42 | 55.30491 | 61.49569 | 761 ft | 6 kts | 284° |
| 2026-04-24 15:43 | 55.30502 | 61.49492 | 761 ft | 6 kts | 284° |
| 2026-04-24 15:43 | 55.30510 | 61.49434 | 762 ft | 3 kts | 284° |
| 2026-04-24 15:43 | 55.30515 | 61.49394 | 763 ft | 3 kts | 284° |
| 2026-04-24 15:43 | 55.30521 | 61.49353 | 764 ft | 2 kts | 283° |
| 2026-04-24 15:44 | 55.30524 | 61.49327 | 764 ft | 4 kts | 283° |
| 2026-04-24 15:44 | 55.30543 | 61.49186 | 764 ft | 7 kts | 283° |
| 2026-04-24 15:44 | 55.30553 | 61.49110 | 764 ft | 1 kts | 284° |
| 2026-04-24 15:44 | 55.30557 | 61.49079 | 764 ft | 3 kts | 284° |
| 2026-04-24 15:45 | 55.30563 | 61.49036 | 764 ft | 4 kts | 284° |
| 2026-04-24 15:45 | 55.30570 | 61.48985 | 764 ft | 4 kts | 284° |
| 2026-04-24 15:45 | 55.30578 | 61.48931 | 764 ft | 4 kts | 284° |
| 2026-04-24 15:45 | 55.30586 | 61.48872 | 764 ft | 6 kts | 284° |
| 2026-04-24 15:46 | 55.30607 | 61.48721 | 762 ft | 16 kts | 284° |
| 2026-04-24 15:46 | 55.30634 | 61.48526 | 761 ft | 16 kts | 283° |
| 2026-04-24 15:46 | 55.30655 | 61.48369 | 761 ft | 12 kts | 284° |
| 2026-04-24 15:46 | 55.30674 | 61.48246 | 761 ft | 9 kts | 288° |
| 2026-04-24 15:47 | 55.30729 | 61.48167 | 758 ft | 12 kts | 6° |
| 2026-04-24 15:47 | 55.30819 | 61.48202 | 755 ft | 14 kts | 13° |
| 2026-04-24 15:47 | 55.30859 | 61.48300 | 756 ft | 0 kts | 97° |
| 2026-04-24 15:47 | 55.30851 | 61.48369 | 757 ft | 26 kts | 103° |
| 2026-04-24 15:48 | 55.30753 | 61.49063 | 763 ft | 88 kts | 104° |
| 2026-04-24 15:48 | 55.30538 | 61.50618 | 772 ft | 174 kts | 106° |
| 2026-04-24 15:48 | 55.30208 | 61.52921 | 1280 ft | 215 kts | 107° |
| 2026-04-24 15:48 | 55.29906 | 61.55704 | 1678 ft | 249 kts | 91° |
| 2026-04-24 15:49 | 55.30403 | 61.58626 | 2331 ft | 258 kts | 60° |
| 2026-04-24 15:49 | 55.31649 | 61.60899 | 2986 ft | 266 kts | 35° |
| 2026-04-24 15:49 | 55.33297 | 61.62306 | 3619 ft | 271 kts | 18° |
| 2026-04-24 15:49 | 55.35161 | 61.62776 | 4245 ft | 274 kts | 354° |
| 2026-04-24 15:50 | 55.36919 | 61.61675 | 4885 ft | 273 kts | 323° |
| 2026-04-24 15:50 | 55.38522 | 61.58353 | 5757 ft | 271 kts | 295° |
| 2026-04-24 15:50 | 55.38978 | 61.56320 | 6180 ft | 269 kts | 281° |
| 2026-04-24 15:50 | 55.39016 | 61.53126 | 6813 ft | 265 kts | 256° |
| 2026-04-24 15:51 | 55.38528 | 61.50008 | 7463 ft | 264 kts | 250° |
| 2026-04-24 15:51 | 55.37964 | 61.46979 | 8100 ft | 262 kts | 250° |
| 2026-04-24 15:51 | 55.37414 | 61.43938 | 8734 ft | 263 kts | 251° |
| 2026-04-24 15:51 | 55.36895 | 61.40883 | 9367 ft | 265 kts | 251° |
| 2026-04-24 15:52 | 55.36387 | 61.37779 | 10004 ft | 263 kts | 251° |
| 2026-04-24 15:52 | 55.35879 | 61.34709 | 10636 ft | 266 kts | 250° |
| 2026-04-24 15:52 | 55.35361 | 61.31614 | 11252 ft | 267 kts | 250° |
| 2026-04-24 15:52 | 55.34837 | 61.28463 | 11764 ft | 269 kts | 250° |
| 2026-04-24 15:53 | 55.34356 | 61.25287 | 12276 ft | 270 kts | 254° |
| 2026-04-24 15:53 | 55.34022 | 61.22064 | 12911 ft | 275 kts | 257° |
| 2026-04-24 15:53 | 55.33741 | 61.18680 | 13545 ft | 289 kts | 257° |
| 2026-04-24 15:53 | 55.33456 | 61.15136 | 14168 ft | 303 kts | 257° |
| 2026-04-24 15:54 | 55.33139 | 61.11388 | 14866 ft | 314 kts | 257° |
| 2026-04-24 15:54 | 55.32829 | 61.07764 | 16241 ft | 301 kts | 256° |
| 2026-04-24 15:54 | 55.32532 | 61.04292 | 17358 ft | 284 kts | 256° |
| 2026-04-24 15:54 | 55.32239 | 61.00919 | 18108 ft | 283 kts | 255° |
| 2026-04-24 15:55 | 55.31917 | 60.97401 | 18464 ft | 302 kts | 255° |
| 2026-04-24 15:55 | 55.31567 | 60.93666 | 18599 ft | 326 kts | 255° |
| 2026-04-24 15:55 | 55.31194 | 60.89579 | 18732 ft | 350 kts | 255° |
| 2026-04-24 15:55 | 55.30812 | 60.85272 | 18943 ft | 370 kts | 256° |
| 2026-04-24 15:56 | 55.30407 | 60.80724 | 19198 ft | 386 kts | 256° |
| 2026-04-24 15:56 | 55.29995 | 60.76076 | 19451 ft | 392 kts | 256° |
| 2026-04-24 15:56 | 55.29569 | 60.71377 | 19699 ft | 389 kts | 256° |
| 2026-04-24 15:56 | 55.29147 | 60.66737 | 19959 ft | 388 kts | 256° |
| 2026-04-24 15:57 | 55.28699 | 60.62009 | 20215 ft | 392 kts | 256° |
| 2026-04-24 15:57 | 55.28262 | 60.57308 | 20512 ft | 391 kts | 256° |
| 2026-04-24 15:57 | 55.27842 | 60.52695 | 21093 ft | 389 kts | 256° |
| 2026-04-24 15:57 | 55.27414 | 60.48016 | 21729 ft | 395 kts | 255° |
| 2026-04-24 15:58 | 55.26976 | 60.43229 | 22378 ft | 400 kts | 256° |
| 2026-04-24 15:58 | 55.26527 | 60.38393 | 23027 ft | 404 kts | 255° |
| 2026-04-24 15:58 | 55.26078 | 60.33594 | 23672 ft | 407 kts | 254° |
| 2026-04-24 15:58 | 55.25616 | 60.28668 | 24338 ft | 410 kts | 254° |
| 2026-04-24 15:59 | 55.25154 | 60.23779 | 24999 ft | 412 kts | 254° |
| 2026-04-24 15:59 | 55.24683 | 60.18848 | 25673 ft | 415 kts | 254° |
| 2026-04-24 15:59 | 55.24204 | 60.13862 | 26351 ft | 418 kts | 254° |
| 2026-04-24 15:59 | 55.23754 | 60.08812 | 27037 ft | 420 kts | 256° |
| 2026-04-24 16:00 | 55.23439 | 60.03745 | 27710 ft | 420 kts | 257° |
| 2026-04-24 16:00 | 55.23187 | 59.98683 | 28393 ft | 418 kts | 257° |
| 2026-04-24 16:00 | 55.22946 | 59.93670 | 29072 ft | 416 kts | 257° |
| 2026-04-24 16:00 | 55.22697 | 59.88686 | 29755 ft | 413 kts | 257° |
| 2026-04-24 16:01 | 55.22442 | 59.83747 | 30440 ft | 408 kts | 257° |
| 2026-04-24 16:01 | 55.22172 | 59.78762 | 31126 ft | 405 kts | 257° |
| 2026-04-24 16:01 | 55.21909 | 59.73872 | 31756 ft | 403 kts | 257° |
| 2026-04-24 16:01 | 55.21709 | 59.68924 | 32392 ft | 404 kts | 261° |
| 2026-04-24 16:02 | 55.21709 | 59.63968 | 32968 ft | 405 kts | 264° |
| 2026-04-24 16:02 | 55.21833 | 59.59089 | 33471 ft | 404 kts | 266° |
| 2026-04-24 16:02 | 55.22001 | 59.54097 | 33677 ft | 410 kts | 267° |
| 2026-04-24 16:02 | 55.22170 | 59.49015 | 33721 ft | 416 kts | 267° |
| 2026-04-24 16:03 | 55.22480 | 59.39023 | 33730 ft | 412 kts | 266° |
| 2026-04-24 16:03 | 55.22754 | 59.28982 | 33720 ft | 411 kts | 265° |
| 2026-04-24 16:04 | 55.23003 | 59.18988 | 33727 ft | 411 kts | 266° |
| 2026-04-24 16:04 | 55.23241 | 59.09018 | 33716 ft | 411 kts | 265° |
| 2026-04-24 16:05 | 55.23605 | 58.93952 | 33712 ft | 413 kts | 266° |
| 2026-04-24 16:06 | 55.23934 | 58.78891 | 33716 ft | 413 kts | 265° |
| 2026-04-24 16:07 | 55.24209 | 58.63732 | 33726 ft | 416 kts | 265° |
| 2026-04-24 16:07 | 55.24485 | 58.48531 | 33753 ft | 419 kts | 266° |
| 2026-04-24 16:08 | 55.24749 | 58.33253 | 33742 ft | 417 kts | 265° |
| 2026-04-24 16:09 | 55.24994 | 58.18007 | 33733 ft | 420 kts | 265° |
| 2026-04-24 16:09 | 55.25202 | 58.07836 | 33738 ft | 422 kts | 268° |
| 2026-04-24 16:11 | 55.26805 | 57.82126 | 33726 ft | 426 kts | 270° |
| 2026-04-24 16:11 | 55.27446 | 57.71832 | 33716 ft | 427 kts | 270° |
| 2026-04-24 16:12 | 55.28337 | 57.56307 | 33725 ft | 427 kts | 270° |
| 2026-04-24 16:13 | 55.29202 | 57.40770 | 33709 ft | 428 kts | 270° |
| 2026-04-24 16:14 | 55.30339 | 57.19926 | 33708 ft | 430 kts | 270° |
| 2026-04-24 16:14 | 55.31164 | 57.04295 | 33715 ft | 432 kts | 270° |
| 2026-04-24 16:15 | 55.31977 | 56.88605 | 33712 ft | 433 kts | 270° |
| 2026-04-24 16:16 | 55.32771 | 56.72800 | 33705 ft | 434 kts | 270° |
| 2026-04-24 16:17 | 55.34050 | 56.46458 | 33708 ft | 436 kts | 270° |
| 2026-04-24 16:18 | 55.35035 | 56.25290 | 33701 ft | 437 kts | 270° |
| 2026-04-24 16:19 | 55.35751 | 56.09401 | 33699 ft | 437 kts | 270° |
| 2026-04-24 16:20 | 55.36448 | 55.93426 | 33704 ft | 439 kts | 270° |
| 2026-04-24 16:20 | 55.37125 | 55.77456 | 33704 ft | 440 kts | 270° |
| 2026-04-24 16:21 | 55.37790 | 55.61335 | 33695 ft | 441 kts | 270° |
| 2026-04-24 16:22 | 55.38220 | 55.50619 | 33701 ft | 443 kts | 270° |
| 2026-04-24 16:22 | 55.38846 | 55.34398 | 33682 ft | 447 kts | 269° |
| 2026-04-24 16:23 | 55.39255 | 55.23500 | 33681 ft | 446 kts | 269° |
| 2026-04-24 16:24 | 55.39585 | 55.07219 | 33675 ft | 445 kts | 267° |
| 2026-04-24 16:24 | 55.39720 | 54.96323 | 33673 ft | 449 kts | 267° |
| 2026-04-24 16:25 | 55.39862 | 54.85430 | 33667 ft | 448 kts | 267° |
| 2026-04-24 16:25 | 55.40006 | 54.74459 | 33663 ft | 449 kts | 267° |
| 2026-04-24 16:26 | 55.40216 | 54.58017 | 33662 ft | 451 kts | 268° |
| 2026-04-24 16:27 | 55.40412 | 54.41521 | 33657 ft | 452 kts | 268° |
| 2026-04-24 16:27 | 55.40531 | 54.30484 | 33647 ft | 453 kts | 266° |
| 2026-04-24 16:28 | 55.40640 | 54.19437 | 33637 ft | 454 kts | 266° |
| 2026-04-24 16:28 | 55.40783 | 54.02810 | 33635 ft | 455 kts | 266° |
| 2026-04-24 16:29 | 55.40870 | 53.91682 | 33634 ft | 457 kts | 266° |
| 2026-04-24 16:30 | 55.41014 | 53.69499 | 33630 ft | 456 kts | 267° |
| 2026-04-24 16:30 | 55.41070 | 53.58381 | 33624 ft | 457 kts | 267° |
| 2026-04-24 16:31 | 55.41116 | 53.47191 | 33616 ft | 456 kts | 266° |
| 2026-04-24 16:31 | 55.41151 | 53.36098 | 33617 ft | 457 kts | 266° |
| 2026-04-24 16:32 | 55.41177 | 53.24869 | 33619 ft | 457 kts | 266° |
| 2026-04-24 16:32 | 55.41197 | 53.13760 | 33610 ft | 459 kts | 266° |
| 2026-04-24 16:33 | 55.41206 | 53.02594 | 33613 ft | 459 kts | 266° |
| 2026-04-24 16:33 | 55.41203 | 52.91371 | 33603 ft | 460 kts | 266° |
| 2026-04-24 16:34 | 55.41191 | 52.80175 | 33602 ft | 459 kts | 266° |
| 2026-04-24 16:34 | 55.41169 | 52.68972 | 33598 ft | 458 kts | 266° |
| 2026-04-24 16:35 | 55.41135 | 52.57740 | 33586 ft | 459 kts | 266° |
| 2026-04-24 16:35 | 55.41091 | 52.46625 | 33583 ft | 459 kts | 266° |
| 2026-04-24 16:36 | 55.41035 | 52.35408 | 33581 ft | 460 kts | 266° |
| 2026-04-24 16:36 | 55.40969 | 52.24199 | 33580 ft | 459 kts | 265° |
| 2026-04-24 16:37 | 55.40895 | 52.13004 | 33578 ft | 459 kts | 265° |
| 2026-04-24 16:37 | 55.40809 | 52.01806 | 33574 ft | 460 kts | 265° |
| 2026-04-24 16:38 | 55.40714 | 51.90634 | 33577 ft | 459 kts | 265° |
| 2026-04-24 16:38 | 55.40609 | 51.79478 | 33574 ft | 459 kts | 265° |
| 2026-04-24 16:39 | 55.40492 | 51.68300 | 33571 ft | 460 kts | 265° |
| 2026-04-24 16:39 | 55.40366 | 51.57080 | 33566 ft | 461 kts | 265° |
| 2026-04-24 16:40 | 55.40229 | 51.45851 | 33556 ft | 460 kts | 265° |
| 2026-04-24 16:40 | 55.40083 | 51.34654 | 33544 ft | 460 kts | 264° |
| 2026-04-24 16:41 | 55.39927 | 51.23430 | 33543 ft | 460 kts | 264° |
| 2026-04-24 16:41 | 55.39760 | 51.12261 | 33535 ft | 460 kts | 264° |
| 2026-04-24 16:42 | 55.39649 | 51.00990 | 33530 ft | 462 kts | 265° |
| 2026-04-24 16:42 | 55.39606 | 50.89780 | 33533 ft | 461 kts | 265° |
| 2026-04-24 16:43 | 55.39556 | 50.78542 | 33532 ft | 462 kts | 265° |
| 2026-04-24 16:43 | 55.39486 | 50.67327 | 33529 ft | 462 kts | 265° |
| 2026-04-24 16:44 | 55.39399 | 50.56014 | 33526 ft | 462 kts | 265° |
| 2026-04-24 16:44 | 55.39299 | 50.44791 | 33517 ft | 462 kts | 265° |
| 2026-04-24 16:45 | 55.39188 | 50.33564 | 33513 ft | 462 kts | 265° |
| 2026-04-24 16:45 | 55.39068 | 50.22338 | 33506 ft | 461 kts | 265° |
| 2026-04-24 16:46 | 55.38936 | 50.11064 | 33504 ft | 463 kts | 265° |
| 2026-04-24 16:46 | 55.38794 | 49.99829 | 33498 ft | 463 kts | 265° |
| 2026-04-24 16:47 | 55.38981 | 49.88513 | 33498 ft | 465 kts | 270° |
| 2026-04-24 16:47 | 55.39570 | 49.77169 | 33503 ft | 467 kts | 272° |
| 2026-04-24 16:48 | 55.40213 | 49.65866 | 33505 ft | 467 kts | 272° |
| 2026-04-24 16:48 | 55.40817 | 49.54508 | 33500 ft | 467 kts | 272° |
| 2026-04-24 16:49 | 55.41378 | 49.43186 | 33502 ft | 468 kts | 271° |
| 2026-04-24 16:49 | 55.41912 | 49.31824 | 33494 ft | 468 kts | 271° |
| 2026-04-24 16:50 | 55.42427 | 49.20460 | 33494 ft | 468 kts | 271° |
| 2026-04-24 16:50 | 55.42931 | 49.09072 | 33500 ft | 467 kts | 271° |
| 2026-04-24 16:51 | 55.43424 | 48.97672 | 33484 ft | 468 kts | 271° |
| 2026-04-24 16:51 | 55.43906 | 48.86319 | 33473 ft | 469 kts | 271° |
| 2026-04-24 16:52 | 55.44383 | 48.74842 | 33467 ft | 470 kts | 271° |
| 2026-04-24 16:52 | 55.44843 | 48.63456 | 33459 ft | 470 kts | 271° |
| 2026-04-24 16:53 | 55.45589 | 48.52032 | 33453 ft | 473 kts | 278° |
| 2026-04-24 16:53 | 55.47209 | 48.40830 | 33449 ft | 476 kts | 284° |
| 2026-04-24 16:54 | 55.49210 | 48.29692 | 33450 ft | 476 kts | 284° |
| 2026-04-24 16:54 | 55.51217 | 48.18645 | 33449 ft | 477 kts | 284° |
| 2026-04-24 16:55 | 55.53191 | 48.07487 | 33453 ft | 477 kts | 284° |
| 2026-04-24 16:55 | 55.55116 | 47.96334 | 33450 ft | 477 kts | 284° |
| 2026-04-24 16:56 | 55.57010 | 47.85201 | 33434 ft | 476 kts | 284° |
| 2026-04-24 16:56 | 55.58897 | 47.73990 | 33429 ft | 476 kts | 284° |
| 2026-04-24 16:57 | 55.60753 | 47.62878 | 33427 ft | 476 kts | 284° |
| 2026-04-24 16:57 | 55.62614 | 47.51653 | 33424 ft | 477 kts | 284° |
| 2026-04-24 16:58 | 55.64466 | 47.40416 | 33423 ft | 477 kts | 284° |
| 2026-04-24 16:58 | 55.66304 | 47.29203 | 33421 ft | 476 kts | 283° |
| 2026-04-24 16:59 | 55.68128 | 47.17990 | 33419 ft | 476 kts | 283° |
| 2026-04-24 17:00 | 55.70853 | 47.01113 | 33417 ft | 476 kts | 284° |
| 2026-04-24 17:00 | 55.73550 | 46.84258 | 33406 ft | 477 kts | 284° |
| 2026-04-24 17:01 | 55.76230 | 46.67359 | 33414 ft | 476 kts | 284° |
| 2026-04-24 17:02 | 55.78823 | 46.50450 | 33408 ft | 475 kts | 282° |
| 2026-04-24 17:02 | 55.79812 | 46.38869 | 33408 ft | 474 kts | 274° |
| 2026-04-24 17:03 | 55.80391 | 46.21471 | 33402 ft | 472 kts | 271° |
| 2026-04-24 17:04 | 55.80690 | 46.09907 | 33405 ft | 472 kts | 271° |
| 2026-04-24 17:04 | 55.81170 | 45.92418 | 33404 ft | 474 kts | 272° |
| 2026-04-24 17:05 | 55.81498 | 45.80789 | 33409 ft | 473 kts | 272° |
| 2026-04-24 17:06 | 55.81983 | 45.63346 | 33408 ft | 474 kts | 272° |
| 2026-04-24 17:06 | 55.82446 | 45.45842 | 33402 ft | 475 kts | 272° |
| 2026-04-24 17:07 | 55.82742 | 45.34167 | 33396 ft | 474 kts | 271° |
| 2026-04-24 17:08 | 55.83297 | 45.10933 | 33391 ft | 473 kts | 272° |
| 2026-04-24 17:08 | 55.83559 | 44.99265 | 33393 ft | 474 kts | 272° |
| 2026-04-24 17:09 | 55.84064 | 44.75815 | 33395 ft | 477 kts | 272° |
| 2026-04-24 17:10 | 55.84531 | 44.52384 | 33397 ft | 475 kts | 272° |
| 2026-04-24 17:12 | 55.85326 | 44.05802 | 33391 ft | 473 kts | 272° |